sensor_id;sensor_type;location;lat;lon;timestamp;P1;durP1;ratioP1;P2;durP2;ratioP2
22250;SDS011;59348;52.158;5.588;2022-11-06T00:00:34;15.65;;;6.20;;
22250;SDS011;59348;52.158;5.588;2022-11-06T00:03:02;12.13;;;6.00;;
22250;SDS011;59348;52.158;5.588;2022-11-06T00:05:29;11.00;;;5.97;;
22250;SDS011;59348;52.158;5.588;2022-11-06T00:08:11;8.95;;;5.45;;
22250;SDS011;59348;52.158;5.588;2022-11-06T00:10:38;14.52;;;5.80;;
22250;SDS011;59348;52.158;5.588;2022-11-06T00:13:07;13.07;;;6.00;;
22250;SDS011;59348;52.158;5.588;2022-11-06T00:15:34;16.05;;;6.28;;
22250;SDS011;59348;52.158;5.588;2022-11-06T00:18:01;14.35;;;6.03;;
22250;SDS011;59348;52.158;5.588;2022-11-06T00:20:29;13.65;;;6.10;;
22250;SDS011;59348;52.158;5.588;2022-11-06T00:22:56;13.40;;;6.10;;
22250;SDS011;59348;52.158;5.588;2022-11-06T00:25:23;12.80;;;5.82;;
22250;SDS011;59348;52.158;5.588;2022-11-06T00:27:51;15.65;;;6.30;;
22250;SDS011;59348;52.158;5.588;2022-11-06T00:30:19;16.30;;;5.95;;
22250;SDS011;59348;52.158;5.588;2022-11-06T00:32:46;12.00;;;5.50;;
22250;SDS011;59348;52.158;5.588;2022-11-06T00:35:14;11.75;;;5.60;;
22250;SDS011;59348;52.158;5.588;2022-11-06T00:37:41;16.77;;;6.43;;
22250;SDS011;59348;52.158;5.588;2022-11-06T00:40:09;13.23;;;6.22;;
22250;SDS011;59348;52.158;5.588;2022-11-06T00:42:37;10.27;;;5.50;;
22250;SDS011;59348;52.158;5.588;2022-11-06T00:45:05;13.63;;;6.22;;
22250;SDS011;59348;52.158;5.588;2022-11-06T00:47:34;12.10;;;6.13;;
22250;SDS011;59348;52.158;5.588;2022-11-06T00:50:01;12.73;;;6.18;;
22250;SDS011;59348;52.158;5.588;2022-11-06T00:52:29;15.60;;;5.82;;
22250;SDS011;59348;52.158;5.588;2022-11-06T00:54:56;13.00;;;5.88;;
22250;SDS011;59348;52.158;5.588;2022-11-06T00:57:23;10.18;;;5.70;;
22250;SDS011;59348;52.158;5.588;2022-11-06T00:59:51;13.40;;;5.95;;
22250;SDS011;59348;52.158;5.588;2022-11-06T01:02:18;11.15;;;5.95;;
22250;SDS011;59348;52.158;5.588;2022-11-06T01:04:46;12.02;;;5.72;;
22250;SDS011;59348;52.158;5.588;2022-11-06T01:07:14;12.98;;;6.05;;
22250;SDS011;59348;52.158;5.588;2022-11-06T01:09:41;16.88;;;6.05;;
22250;SDS011;59348;52.158;5.588;2022-11-06T01:12:09;13.93;;;5.97;;
22250;SDS011;59348;52.158;5.588;2022-11-06T01:14:37;11.93;;;5.97;;
22250;SDS011;59348;52.158;5.588;2022-11-06T01:17:05;15.05;;;6.10;;
22250;SDS011;59348;52.158;5.588;2022-11-06T01:19:32;12.90;;;5.97;;
22250;SDS011;59348;52.158;5.588;2022-11-06T01:22:01;13.27;;;5.82;;
22250;SDS011;59348;52.158;5.588;2022-11-06T01:24:29;14.35;;;5.72;;
22250;SDS011;59348;52.158;5.588;2022-11-06T01:26:56;14.05;;;6.00;;
22250;SDS011;59348;52.158;5.588;2022-11-06T01:29:24;14.00;;;5.50;;
22250;SDS011;59348;52.158;5.588;2022-11-06T01:31:51;13.57;;;5.70;;
22250;SDS011;59348;52.158;5.588;2022-11-06T01:34:18;14.50;;;5.90;;
22250;SDS011;59348;52.158;5.588;2022-11-06T01:36:45;12.95;;;5.55;;
22250;SDS011;59348;52.158;5.588;2022-11-06T01:39:14;10.55;;;5.47;;
22250;SDS011;59348;52.158;5.588;2022-11-06T01:41:42;17.33;;;5.82;;
22250;SDS011;59348;52.158;5.588;2022-11-06T01:46:53;10.68;;;4.88;;
22250;SDS011;59348;52.158;5.588;2022-11-06T01:49:20;10.77;;;5.35;;
22250;SDS011;59348;52.158;5.588;2022-11-06T01:51:48;12.02;;;5.40;;
22250;SDS011;59348;52.158;5.588;2022-11-06T01:54:18;13.85;;;5.28;;
22250;SDS011;59348;52.158;5.588;2022-11-06T01:56:46;11.02;;;5.07;;
22250;SDS011;59348;52.158;5.588;2022-11-06T01:59:16;12.48;;;5.22;;
22250;SDS011;59348;52.158;5.588;2022-11-06T02:01:44;12.77;;;5.15;;
22250;SDS011;59348;52.158;5.588;2022-11-06T02:04:13;11.40;;;4.65;;
22250;SDS011;59348;52.158;5.588;2022-11-06T02:06:41;14.68;;;5.10;;
22250;SDS011;59348;52.158;5.588;2022-11-06T02:09:10;11.75;;;4.90;;
22250;SDS011;59348;52.158;5.588;2022-11-06T02:11:38;11.15;;;5.10;;
22250;SDS011;59348;52.158;5.588;2022-11-06T02:14:07;8.40;;;4.25;;
22250;SDS011;59348;52.158;5.588;2022-11-06T02:16:38;11.52;;;5.05;;
22250;SDS011;59348;52.158;5.588;2022-11-06T02:19:13;12.90;;;5.18;;
22250;SDS011;59348;52.158;5.588;2022-11-06T02:21:51;14.75;;;4.63;;
22250;SDS011;59348;52.158;5.588;2022-11-06T02:24:34;14.43;;;5.07;;
22250;SDS011;59348;52.158;5.588;2022-11-06T02:27:07;10.75;;;4.45;;
22250;SDS011;59348;52.158;5.588;2022-11-06T02:29:37;10.57;;;4.63;;
22250;SDS011;59348;52.158;5.588;2022-11-06T02:32:07;10.80;;;5.00;;
22250;SDS011;59348;52.158;5.588;2022-11-06T02:34:36;11.25;;;4.63;;
22250;SDS011;59348;52.158;5.588;2022-11-06T02:37:05;13.07;;;4.40;;
22250;SDS011;59348;52.158;5.588;2022-11-06T02:39:35;12.40;;;4.60;;
22250;SDS011;59348;52.158;5.588;2022-11-06T02:42:04;13.02;;;4.50;;
22250;SDS011;59348;52.158;5.588;2022-11-06T02:44:35;16.02;;;5.00;;
22250;SDS011;59348;52.158;5.588;2022-11-06T02:47:04;8.18;;;3.80;;
22250;SDS011;59348;52.158;5.588;2022-11-06T02:49:33;12.30;;;4.32;;
22250;SDS011;59348;52.158;5.588;2022-11-06T02:52:03;10.10;;;4.20;;
22250;SDS011;59348;52.158;5.588;2022-11-06T02:54:33;10.30;;;3.97;;
22250;SDS011;59348;52.158;5.588;2022-11-06T02:57:03;10.50;;;3.90;;
22250;SDS011;59348;52.158;5.588;2022-11-06T02:59:32;13.75;;;4.70;;
22250;SDS011;59348;52.158;5.588;2022-11-06T03:02:02;10.40;;;4.03;;
22250;SDS011;59348;52.158;5.588;2022-11-06T03:04:33;11.27;;;4.13;;
22250;SDS011;59348;52.158;5.588;2022-11-06T03:07:02;9.63;;;4.10;;
22250;SDS011;59348;52.158;5.588;2022-11-06T03:09:31;14.43;;;3.90;;
22250;SDS011;59348;52.158;5.588;2022-11-06T03:12:00;10.70;;;4.03;;
22250;SDS011;59348;52.158;5.588;2022-11-06T03:14:31;11.98;;;4.30;;
22250;SDS011;59348;52.158;5.588;2022-11-06T03:17:03;9.43;;;3.80;;
22250;SDS011;59348;52.158;5.588;2022-11-06T03:19:34;19.98;;;4.10;;
22250;SDS011;59348;52.158;5.588;2022-11-06T03:22:08;15.68;;;4.35;;
22250;SDS011;59348;52.158;5.588;2022-11-06T03:24:40;11.43;;;3.80;;
22250;SDS011;59348;52.158;5.588;2022-11-06T03:27:11;8.68;;;4.10;;
22250;SDS011;59348;52.158;5.588;2022-11-06T03:29:40;7.20;;;3.60;;
22250;SDS011;59348;52.158;5.588;2022-11-06T03:32:12;11.15;;;3.50;;
22250;SDS011;59348;52.158;5.588;2022-11-06T03:34:41;11.18;;;3.70;;
22250;SDS011;59348;52.158;5.588;2022-11-06T03:37:12;10.68;;;4.03;;
22250;SDS011;59348;52.158;5.588;2022-11-06T03:39:43;11.80;;;3.50;;
22250;SDS011;59348;52.158;5.588;2022-11-06T03:42:13;12.60;;;3.97;;
22250;SDS011;59348;52.158;5.588;2022-11-06T03:44:42;7.82;;;3.63;;
22250;SDS011;59348;52.158;5.588;2022-11-06T03:47:12;7.65;;;3.58;;
22250;SDS011;59348;52.158;5.588;2022-11-06T03:49:45;9.85;;;3.67;;
22250;SDS011;59348;52.158;5.588;2022-11-06T03:52:14;11.68;;;3.55;;
22250;SDS011;59348;52.158;5.588;2022-11-06T03:54:45;10.27;;;3.67;;
22250;SDS011;59348;52.158;5.588;2022-11-06T03:57:14;10.07;;;3.30;;
22250;SDS011;59348;52.158;5.588;2022-11-06T03:59:45;12.50;;;3.50;;
22250;SDS011;59348;52.158;5.588;2022-11-06T04:02:15;8.30;;;3.42;;
22250;SDS011;59348;52.158;5.588;2022-11-06T04:04:45;12.45;;;3.33;;
22250;SDS011;59348;52.158;5.588;2022-11-06T04:07:14;9.05;;;3.33;;
22250;SDS011;59348;52.158;5.588;2022-11-06T04:09:43;7.97;;;3.30;;
22250;SDS011;59348;52.158;5.588;2022-11-06T04:12:27;11.57;;;3.55;;
22250;SDS011;59348;52.158;5.588;2022-11-06T04:15:11;9.55;;;3.20;;
22250;SDS011;59348;52.158;5.588;2022-11-06T04:17:40;12.18;;;3.55;;
22250;SDS011;59348;52.158;5.588;2022-11-06T04:20:08;13.00;;;3.30;;
22250;SDS011;59348;52.158;5.588;2022-11-06T04:22:57;11.65;;;3.03;;
22250;SDS011;59348;52.158;5.588;2022-11-06T04:25:28;10.15;;;3.03;;
22250;SDS011;59348;52.158;5.588;2022-11-06T04:28:18;11.32;;;3.30;;
22250;SDS011;59348;52.158;5.588;2022-11-06T04:30:50;15.80;;;3.33;;
22250;SDS011;59348;52.158;5.588;2022-11-06T04:33:24;10.27;;;3.20;;
22250;SDS011;59348;52.158;5.588;2022-11-06T04:35:54;11.15;;;3.20;;
22250;SDS011;59348;52.158;5.588;2022-11-06T04:38:25;9.77;;;3.20;;
22250;SDS011;59348;52.158;5.588;2022-11-06T04:40:57;9.90;;;2.92;;
22250;SDS011;59348;52.158;5.588;2022-11-06T04:43:29;12.48;;;3.15;;
22250;SDS011;59348;52.158;5.588;2022-11-06T04:45:57;10.70;;;2.83;;
22250;SDS011;59348;52.158;5.588;2022-11-06T04:48:27;9.90;;;3.28;;
22250;SDS011;59348;52.158;5.588;2022-11-06T04:50:58;14.00;;;3.35;;
22250;SDS011;59348;52.158;5.588;2022-11-06T04:53:26;7.38;;;2.92;;
22250;SDS011;59348;52.158;5.588;2022-11-06T04:55:58;14.50;;;3.00;;
22250;SDS011;59348;52.158;5.588;2022-11-06T04:58:26;6.63;;;2.58;;
22250;SDS011;59348;52.158;5.588;2022-11-06T05:00:53;14.70;;;3.20;;
22250;SDS011;59348;52.158;5.588;2022-11-06T05:03:20;9.90;;;3.20;;
22250;SDS011;59348;52.158;5.588;2022-11-06T05:05:49;10.90;;;2.80;;
22250;SDS011;59348;52.158;5.588;2022-11-06T05:08:18;8.95;;;2.80;;
22250;SDS011;59348;52.158;5.588;2022-11-06T05:10:46;10.90;;;3.00;;
22250;SDS011;59348;52.158;5.588;2022-11-06T05:13:14;12.35;;;3.13;;
22250;SDS011;59348;52.158;5.588;2022-11-06T05:15:41;10.00;;;2.78;;
22250;SDS011;59348;52.158;5.588;2022-11-06T05:18:10;8.43;;;2.85;;
22250;SDS011;59348;52.158;5.588;2022-11-06T05:20:37;11.10;;;2.65;;
22250;SDS011;59348;52.158;5.588;2022-11-06T05:23:06;9.43;;;2.78;;
22250;SDS011;59348;52.158;5.588;2022-11-06T05:25:33;8.77;;;2.58;;
22250;SDS011;59348;52.158;5.588;2022-11-06T05:28:01;6.15;;;2.75;;
22250;SDS011;59348;52.158;5.588;2022-11-06T05:30:29;10.95;;;2.70;;
22250;SDS011;59348;52.158;5.588;2022-11-06T05:32:57;9.45;;;2.85;;
22250;SDS011;59348;52.158;5.588;2022-11-06T05:35:24;12.95;;;2.67;;
22250;SDS011;59348;52.158;5.588;2022-11-06T05:37:57;13.55;;;2.95;;
22250;SDS011;59348;52.158;5.588;2022-11-06T05:40:25;13.80;;;3.00;;
22250;SDS011;59348;52.158;5.588;2022-11-06T05:42:53;12.45;;;3.38;;
22250;SDS011;59348;52.158;5.588;2022-11-06T05:45:20;8.68;;;2.85;;
22250;SDS011;59348;52.158;5.588;2022-11-06T05:47:47;12.85;;;2.80;;
22250;SDS011;59348;52.158;5.588;2022-11-06T05:50:14;12.85;;;2.78;;
22250;SDS011;59348;52.158;5.588;2022-11-06T05:52:42;16.00;;;3.22;;
22250;SDS011;59348;52.158;5.588;2022-11-06T05:55:09;8.98;;;2.97;;
22250;SDS011;59348;52.158;5.588;2022-11-06T05:57:38;8.15;;;2.67;;
22250;SDS011;59348;52.158;5.588;2022-11-06T06:00:05;12.82;;;3.13;;
22250;SDS011;59348;52.158;5.588;2022-11-06T06:02:33;11.13;;;2.80;;
22250;SDS011;59348;52.158;5.588;2022-11-06T06:05:00;8.55;;;2.85;;
22250;SDS011;59348;52.158;5.588;2022-11-06T06:07:27;11.32;;;3.05;;
22250;SDS011;59348;52.158;5.588;2022-11-06T06:09:55;13.27;;;2.78;;
22250;SDS011;59348;52.158;5.588;2022-11-06T06:12:22;11.27;;;2.85;;
22250;SDS011;59348;52.158;5.588;2022-11-06T06:14:51;8.13;;;2.80;;
22250;SDS011;59348;52.158;5.588;2022-11-06T06:17:19;7.38;;;2.60;;
22250;SDS011;59348;52.158;5.588;2022-11-06T06:19:46;9.75;;;3.10;;
22250;SDS011;59348;52.158;5.588;2022-11-06T06:22:14;10.02;;;3.08;;
22250;SDS011;59348;52.158;5.588;2022-11-06T06:24:41;8.10;;;3.10;;
22250;SDS011;59348;52.158;5.588;2022-11-06T06:27:08;11.02;;;2.85;;
22250;SDS011;59348;52.158;5.588;2022-11-06T06:29:36;10.88;;;2.83;;
22250;SDS011;59348;52.158;5.588;2022-11-06T06:32:05;7.28;;;2.88;;
22250;SDS011;59348;52.158;5.588;2022-11-06T06:34:32;9.68;;;2.80;;
22250;SDS011;59348;52.158;5.588;2022-11-06T06:36:59;11.73;;;2.88;;
22250;SDS011;59348;52.158;5.588;2022-11-06T06:39:27;9.35;;;2.90;;
22250;SDS011;59348;52.158;5.588;2022-11-06T06:41:55;12.13;;;2.92;;
22250;SDS011;59348;52.158;5.588;2022-11-06T06:44:22;8.57;;;2.90;;
22250;SDS011;59348;52.158;5.588;2022-11-06T06:46:50;8.35;;;2.70;;
22250;SDS011;59348;52.158;5.588;2022-11-06T06:49:18;8.32;;;2.58;;
22250;SDS011;59348;52.158;5.588;2022-11-06T06:51:46;7.22;;;2.65;;
22250;SDS011;59348;52.158;5.588;2022-11-06T06:54:13;8.00;;;3.17;;
22250;SDS011;59348;52.158;5.588;2022-11-06T06:56:40;8.63;;;2.70;;
22250;SDS011;59348;52.158;5.588;2022-11-06T06:59:08;9.10;;;2.70;;
22250;SDS011;59348;52.158;5.588;2022-11-06T07:01:36;8.35;;;3.25;;
22250;SDS011;59348;52.158;5.588;2022-11-06T07:04:03;15.32;;;3.10;;
22250;SDS011;59348;52.158;5.588;2022-11-06T07:06:32;7.85;;;2.90;;
22250;SDS011;59348;52.158;5.588;2022-11-06T07:08:59;7.63;;;2.88;;
22250;SDS011;59348;52.158;5.588;2022-11-06T07:11:26;10.80;;;2.88;;
22250;SDS011;59348;52.158;5.588;2022-11-06T07:13:54;9.55;;;3.08;;
22250;SDS011;59348;52.158;5.588;2022-11-06T07:16:21;8.98;;;3.17;;
22250;SDS011;59348;52.158;5.588;2022-11-06T07:18:49;9.38;;;3.00;;
22250;SDS011;59348;52.158;5.588;2022-11-06T07:21:16;9.25;;;3.20;;
22250;SDS011;59348;52.158;5.588;2022-11-06T07:23:45;7.18;;;2.80;;
22250;SDS011;59348;52.158;5.588;2022-11-06T07:26:12;8.82;;;2.95;;
22250;SDS011;59348;52.158;5.588;2022-11-06T07:28:40;10.90;;;2.88;;
22250;SDS011;59348;52.158;5.588;2022-11-06T07:31:07;8.45;;;3.08;;
22250;SDS011;59348;52.158;5.588;2022-11-06T07:33:37;14.23;;;3.10;;
22250;SDS011;59348;52.158;5.588;2022-11-06T07:36:05;9.05;;;2.97;;
22250;SDS011;59348;52.158;5.588;2022-11-06T07:38:32;7.20;;;2.60;;
22250;SDS011;59348;52.158;5.588;2022-11-06T07:41:02;7.72;;;3.20;;
22250;SDS011;59348;52.158;5.588;2022-11-06T07:43:29;8.90;;;2.70;;
22250;SDS011;59348;52.158;5.588;2022-11-06T07:45:57;10.02;;;2.80;;
22250;SDS011;59348;52.158;5.588;2022-11-06T07:48:25;7.05;;;2.80;;
22250;SDS011;59348;52.158;5.588;2022-11-06T07:50:53;11.07;;;2.90;;
22250;SDS011;59348;52.158;5.588;2022-11-06T07:53:20;8.50;;;3.10;;
22250;SDS011;59348;52.158;5.588;2022-11-06T07:55:48;5.85;;;2.35;;
22250;SDS011;59348;52.158;5.588;2022-11-06T07:58:17;11.65;;;3.00;;
22250;SDS011;59348;52.158;5.588;2022-11-06T08:00:45;9.00;;;2.83;;
22250;SDS011;59348;52.158;5.588;2022-11-06T08:03:13;6.18;;;3.00;;
22250;SDS011;59348;52.158;5.588;2022-11-06T08:05:40;11.77;;;2.75;;
22250;SDS011;59348;52.158;5.588;2022-11-06T08:08:08;8.35;;;2.80;;
22250;SDS011;59348;52.158;5.588;2022-11-06T08:10:36;13.77;;;2.90;;
22250;SDS011;59348;52.158;5.588;2022-11-06T08:13:07;8.07;;;2.63;;
22250;SDS011;59348;52.158;5.588;2022-11-06T08:15:37;9.27;;;2.78;;
22250;SDS011;59348;52.158;5.588;2022-11-06T08:18:04;8.82;;;2.95;;
22250;SDS011;59348;52.158;5.588;2022-11-06T08:20:32;6.13;;;2.90;;
22250;SDS011;59348;52.158;5.588;2022-11-06T08:23:00;8.63;;;2.72;;
22250;SDS011;59348;52.158;5.588;2022-11-06T08:25:27;9.55;;;3.00;;
22250;SDS011;59348;52.158;5.588;2022-11-06T08:27:55;9.00;;;2.80;;
22250;SDS011;59348;52.158;5.588;2022-11-06T08:30:23;4.88;;;2.22;;
22250;SDS011;59348;52.158;5.588;2022-11-06T08:32:51;7.72;;;2.95;;
22250;SDS011;59348;52.158;5.588;2022-11-06T08:35:19;9.13;;;2.67;;
22250;SDS011;59348;52.158;5.588;2022-11-06T08:37:47;7.35;;;2.53;;
22250;SDS011;59348;52.158;5.588;2022-11-06T08:40:14;6.60;;;2.85;;
22250;SDS011;59348;52.158;5.588;2022-11-06T08:42:42;8.40;;;2.65;;
22250;SDS011;59348;52.158;5.588;2022-11-06T08:45:09;8.68;;;2.70;;
22250;SDS011;59348;52.158;5.588;2022-11-06T08:47:37;7.28;;;2.85;;
22250;SDS011;59348;52.158;5.588;2022-11-06T08:50:06;10.50;;;2.97;;
22250;SDS011;59348;52.158;5.588;2022-11-06T08:52:33;6.82;;;2.85;;
22250;SDS011;59348;52.158;5.588;2022-11-06T08:55:00;8.32;;;2.80;;
22250;SDS011;59348;52.158;5.588;2022-11-06T08:57:29;7.47;;;2.25;;
22250;SDS011;59348;52.158;5.588;2022-11-06T08:59:56;7.28;;;2.40;;
22250;SDS011;59348;52.158;5.588;2022-11-06T09:02:23;8.48;;;2.25;;
22250;SDS011;59348;52.158;5.588;2022-11-06T09:04:50;8.13;;;2.40;;
22250;SDS011;59348;52.158;5.588;2022-11-06T09:07:19;10.48;;;2.97;;
22250;SDS011;59348;52.158;5.588;2022-11-06T09:09:46;11.00;;;2.65;;
22250;SDS011;59348;52.158;5.588;2022-11-06T09:12:14;6.22;;;2.50;;
22250;SDS011;59348;52.158;5.588;2022-11-06T09:14:41;6.55;;;2.50;;
22250;SDS011;59348;52.158;5.588;2022-11-06T09:17:09;7.05;;;2.40;;
22250;SDS011;59348;52.158;5.588;2022-11-06T09:19:36;8.48;;;2.30;;
22250;SDS011;59348;52.158;5.588;2022-11-06T09:22:03;8.95;;;2.60;;
22250;SDS011;59348;52.158;5.588;2022-11-06T09:24:32;6.53;;;2.17;;
22250;SDS011;59348;52.158;5.588;2022-11-06T09:26:59;6.47;;;2.22;;
22250;SDS011;59348;52.158;5.588;2022-11-06T09:29:27;7.13;;;2.50;;
22250;SDS011;59348;52.158;5.588;2022-11-06T09:31:54;11.15;;;2.30;;
22250;SDS011;59348;52.158;5.588;2022-11-06T09:34:21;7.10;;;2.30;;
22250;SDS011;59348;52.158;5.588;2022-11-06T09:36:49;9.93;;;2.50;;
22250;SDS011;59348;52.158;5.588;2022-11-06T09:39:16;7.72;;;2.50;;
22250;SDS011;59348;52.158;5.588;2022-11-06T09:41:47;7.38;;;2.30;;
22250;SDS011;59348;52.158;5.588;2022-11-06T09:44:19;7.10;;;2.20;;
22250;SDS011;59348;52.158;5.588;2022-11-06T09:46:49;8.30;;;2.10;;
22250;SDS011;59348;52.158;5.588;2022-11-06T09:49:18;7.63;;;1.95;;
22250;SDS011;59348;52.158;5.588;2022-11-06T09:51:47;9.30;;;2.25;;
22250;SDS011;59348;52.158;5.588;2022-11-06T09:54:18;10.73;;;2.40;;
22250;SDS011;59348;52.158;5.588;2022-11-06T09:56:48;5.78;;;2.17;;
22250;SDS011;59348;52.158;5.588;2022-11-06T09:59:17;5.97;;;1.92;;
22250;SDS011;59348;52.158;5.588;2022-11-06T10:01:46;6.82;;;2.20;;
22250;SDS011;59348;52.158;5.588;2022-11-06T10:04:18;7.25;;;2.30;;
22250;SDS011;59348;52.158;5.588;2022-11-06T10:06:47;9.40;;;2.10;;
22250;SDS011;59348;52.158;5.588;2022-11-06T10:09:14;5.68;;;2.08;;
22250;SDS011;59348;52.158;5.588;2022-11-06T10:11:49;9.00;;;2.13;;
22250;SDS011;59348;52.158;5.588;2022-11-06T10:14:21;8.43;;;2.00;;
22250;SDS011;59348;52.158;5.588;2022-11-06T10:16:54;5.13;;;1.70;;
22250;SDS011;59348;52.158;5.588;2022-11-06T10:19:30;5.88;;;2.13;;
22250;SDS011;59348;52.158;5.588;2022-11-06T10:22:02;9.07;;;1.90;;
22250;SDS011;59348;52.158;5.588;2022-11-06T10:24:35;5.05;;;2.20;;
22250;SDS011;59348;52.158;5.588;2022-11-06T10:27:10;5.57;;;2.10;;
22250;SDS011;59348;52.158;5.588;2022-11-06T10:29:44;5.47;;;2.10;;
22250;SDS011;59348;52.158;5.588;2022-11-06T10:35:01;5.13;;;2.08;;
22250;SDS011;59348;52.158;5.588;2022-11-06T10:37:31;5.03;;;2.00;;
22250;SDS011;59348;52.158;5.588;2022-11-06T10:40:02;6.68;;;2.45;;
22250;SDS011;59348;52.158;5.588;2022-11-06T10:42:33;9.23;;;2.10;;
22250;SDS011;59348;52.158;5.588;2022-11-06T10:45:03;8.38;;;2.15;;
22250;SDS011;59348;52.158;5.588;2022-11-06T10:47:32;6.97;;;2.20;;
22250;SDS011;59348;52.158;5.588;2022-11-06T10:50:03;8.50;;;2.10;;
22250;SDS011;59348;52.158;5.588;2022-11-06T10:52:35;6.65;;;2.25;;
22250;SDS011;59348;52.158;5.588;2022-11-06T10:55:23;5.88;;;2.22;;
22250;SDS011;59348;52.158;5.588;2022-11-06T10:57:54;6.65;;;2.03;;
22250;SDS011;59348;52.158;5.588;2022-11-06T11:00:22;4.78;;;2.22;;
22250;SDS011;59348;52.158;5.588;2022-11-06T11:02:50;7.38;;;2.15;;
22250;SDS011;59348;52.158;5.588;2022-11-06T11:05:18;5.80;;;2.20;;
22250;SDS011;59348;52.158;5.588;2022-11-06T11:07:47;6.40;;;2.00;;
22250;SDS011;59348;52.158;5.588;2022-11-06T11:10:23;4.80;;;1.70;;
22250;SDS011;59348;52.158;5.588;2022-11-06T11:12:53;8.40;;;1.83;;
22250;SDS011;59348;52.158;5.588;2022-11-06T11:15:21;5.55;;;2.10;;
22250;SDS011;59348;52.158;5.588;2022-11-06T11:20:31;5.90;;;2.00;;
22250;SDS011;59348;52.158;5.588;2022-11-06T11:23:09;6.30;;;2.00;;
22250;SDS011;59348;52.158;5.588;2022-11-06T11:25:39;7.35;;;1.95;;
22250;SDS011;59348;52.158;5.588;2022-11-06T11:28:11;5.97;;;2.35;;
22250;SDS011;59348;52.158;5.588;2022-11-06T11:30:49;4.95;;;1.92;;
22250;SDS011;59348;52.158;5.588;2022-11-06T11:33:17;10.73;;;2.15;;
22250;SDS011;59348;52.158;5.588;2022-11-06T11:35:46;5.68;;;1.67;;
22250;SDS011;59348;52.158;5.588;2022-11-06T11:38:16;5.38;;;1.85;;
22250;SDS011;59348;52.158;5.588;2022-11-06T11:40:46;4.68;;;1.70;;
22250;SDS011;59348;52.158;5.588;2022-11-06T11:43:19;5.43;;;1.92;;
22250;SDS011;59348;52.158;5.588;2022-11-06T11:46:00;7.22;;;1.80;;
22250;SDS011;59348;52.158;5.588;2022-11-06T11:48:28;6.20;;;1.77;;
22250;SDS011;59348;52.158;5.588;2022-11-06T11:51:10;7.22;;;1.70;;
22250;SDS011;59348;52.158;5.588;2022-11-06T11:53:37;5.90;;;2.00;;
22250;SDS011;59348;52.158;5.588;2022-11-06T11:56:05;6.03;;;1.85;;
22250;SDS011;59348;52.158;5.588;2022-11-06T11:58:34;5.72;;;1.88;;
22250;SDS011;59348;52.158;5.588;2022-11-06T12:01:03;6.60;;;1.90;;
22250;SDS011;59348;52.158;5.588;2022-11-06T12:03:33;7.25;;;1.92;;
22250;SDS011;59348;52.158;5.588;2022-11-06T12:06:03;7.43;;;1.92;;
22250;SDS011;59348;52.158;5.588;2022-11-06T12:08:31;6.50;;;2.20;;
22250;SDS011;59348;52.158;5.588;2022-11-06T12:11:00;6.93;;;2.08;;
22250;SDS011;59348;52.158;5.588;2022-11-06T12:13:28;8.23;;;1.98;;
22250;SDS011;59348;52.158;5.588;2022-11-06T12:15:58;5.88;;;2.13;;
22250;SDS011;59348;52.158;5.588;2022-11-06T12:18:27;7.25;;;2.03;;
22250;SDS011;59348;52.158;5.588;2022-11-06T12:20:57;6.70;;;2.25;;
22250;SDS011;59348;52.158;5.588;2022-11-06T12:23:27;7.35;;;2.10;;
22250;SDS011;59348;52.158;5.588;2022-11-06T12:25:57;11.32;;;2.10;;
22250;SDS011;59348;52.158;5.588;2022-11-06T12:28:27;6.05;;;2.10;;
22250;SDS011;59348;52.158;5.588;2022-11-06T12:30:58;5.78;;;2.15;;
22250;SDS011;59348;52.158;5.588;2022-11-06T12:33:27;6.68;;;2.17;;
22250;SDS011;59348;52.158;5.588;2022-11-06T12:35:56;7.88;;;2.30;;
22250;SDS011;59348;52.158;5.588;2022-11-06T12:38:26;7.32;;;2.33;;
22250;SDS011;59348;52.158;5.588;2022-11-06T12:40:57;5.68;;;1.85;;
22250;SDS011;59348;52.158;5.588;2022-11-06T12:43:28;7.60;;;2.20;;
22250;SDS011;59348;52.158;5.588;2022-11-06T12:46:05;9.98;;;2.10;;
22250;SDS011;59348;52.158;5.588;2022-11-06T12:48:39;9.10;;;2.30;;
22250;SDS011;59348;52.158;5.588;2022-11-06T12:51:11;10.10;;;2.45;;
22250;SDS011;59348;52.158;5.588;2022-11-06T12:53:46;8.00;;;2.30;;
22250;SDS011;59348;52.158;5.588;2022-11-06T12:56:17;6.63;;;2.05;;
22250;SDS011;59348;52.158;5.588;2022-11-06T12:58:53;7.38;;;1.92;;
22250;SDS011;59348;52.158;5.588;2022-11-06T13:01:25;10.73;;;2.22;;
22250;SDS011;59348;52.158;5.588;2022-11-06T13:04:08;5.88;;;1.63;;
22250;SDS011;59348;52.158;5.588;2022-11-06T13:09:19;7.38;;;2.10;;
22250;SDS011;59348;52.158;5.588;2022-11-06T13:11:51;7.28;;;2.13;;
22250;SDS011;59348;52.158;5.588;2022-11-06T13:14:24;7.80;;;1.95;;
22250;SDS011;59348;52.158;5.588;2022-11-06T13:16:56;8.23;;;2.10;;
22250;SDS011;59348;52.158;5.588;2022-11-06T13:19:27;7.07;;;1.98;;
22250;SDS011;59348;52.158;5.588;2022-11-06T13:22:03;7.68;;;2.08;;
22250;SDS011;59348;52.158;5.588;2022-11-06T13:24:34;7.00;;;2.00;;
22250;SDS011;59348;52.158;5.588;2022-11-06T13:27:04;6.63;;;1.67;;
22250;SDS011;59348;52.158;5.588;2022-11-06T13:29:37;8.02;;;2.03;;
22250;SDS011;59348;52.158;5.588;2022-11-06T13:32:07;8.82;;;2.28;;
22250;SDS011;59348;52.158;5.588;2022-11-06T13:34:37;6.15;;;2.10;;
22250;SDS011;59348;52.158;5.588;2022-11-06T13:37:07;8.30;;;2.00;;
22250;SDS011;59348;52.158;5.588;2022-11-06T13:39:39;9.23;;;2.13;;
22250;SDS011;59348;52.158;5.588;2022-11-06T13:42:18;5.90;;;2.00;;
22250;SDS011;59348;52.158;5.588;2022-11-06T13:44:47;7.68;;;2.42;;
22250;SDS011;59348;52.158;5.588;2022-11-06T13:47:17;6.93;;;2.40;;
22250;SDS011;59348;52.158;5.588;2022-11-06T13:49:46;6.63;;;2.13;;
22250;SDS011;59348;52.158;5.588;2022-11-06T13:52:20;10.07;;;2.58;;
22250;SDS011;59348;52.158;5.588;2022-11-06T13:54:56;6.25;;;1.90;;
22250;SDS011;59348;52.158;5.588;2022-11-06T13:57:30;8.48;;;2.30;;
22250;SDS011;59348;52.158;5.588;2022-11-06T14:00:05;6.65;;;1.83;;
22250;SDS011;59348;52.158;5.588;2022-11-06T14:02:47;5.65;;;1.98;;
22250;SDS011;59348;52.158;5.588;2022-11-06T14:05:27;6.18;;;2.20;;
22250;SDS011;59348;52.158;5.588;2022-11-06T14:07:57;4.93;;;1.98;;
22250;SDS011;59348;52.158;5.588;2022-11-06T14:10:25;6.10;;;1.88;;
22250;SDS011;59348;52.158;5.588;2022-11-06T14:12:55;6.78;;;2.03;;
22250;SDS011;59348;52.158;5.588;2022-11-06T14:15:24;6.00;;;1.80;;
22250;SDS011;59348;52.158;5.588;2022-11-06T14:17:56;6.57;;;1.80;;
22250;SDS011;59348;52.158;5.588;2022-11-06T14:20:26;7.00;;;2.00;;
22250;SDS011;59348;52.158;5.588;2022-11-06T14:22:53;6.53;;;1.92;;
22250;SDS011;59348;52.158;5.588;2022-11-06T14:28:04;8.95;;;2.30;;
22250;SDS011;59348;52.158;5.588;2022-11-06T14:35:57;9.13;;;2.45;;
22250;SDS011;59348;52.158;5.588;2022-11-06T14:38:32;10.25;;;2.28;;
22250;SDS011;59348;52.158;5.588;2022-11-06T14:41:01;8.20;;;2.20;;
22250;SDS011;59348;52.158;5.588;2022-11-06T14:43:29;7.43;;;2.55;;
22250;SDS011;59348;52.158;5.588;2022-11-06T14:45:58;8.45;;;2.83;;
22250;SDS011;59348;52.158;5.588;2022-11-06T14:48:27;6.80;;;2.28;;
22250;SDS011;59348;52.158;5.588;2022-11-06T14:50:56;6.50;;;2.13;;
22250;SDS011;59348;52.158;5.588;2022-11-06T14:53:25;9.95;;;2.70;;
22250;SDS011;59348;52.158;5.588;2022-11-06T14:55:55;6.57;;;2.60;;
22250;SDS011;59348;52.158;5.588;2022-11-06T14:58:24;9.80;;;3.33;;
22250;SDS011;59348;52.158;5.588;2022-11-06T15:00:53;16.88;;;4.20;;
22250;SDS011;59348;52.158;5.588;2022-11-06T15:03:22;12.48;;;4.03;;
22250;SDS011;59348;52.158;5.588;2022-11-06T15:05:58;8.30;;;3.95;;
22250;SDS011;59348;52.158;5.588;2022-11-06T15:11:08;11.48;;;4.35;;
22250;SDS011;59348;52.158;5.588;2022-11-06T15:13:36;10.32;;;4.45;;
22250;SDS011;59348;52.158;5.588;2022-11-06T15:16:04;8.63;;;3.58;;
22250;SDS011;59348;52.158;5.588;2022-11-06T15:18:33;8.40;;;3.10;;